createdAt,value
2018-09-10T00:02:06.190Z,14.18
2018-09-10T00:04:33.449Z,14.80
2018-09-10T00:07:00.738Z,14.20
2018-09-10T00:09:28.045Z,14.53
2018-09-10T00:11:55.409Z,13.88
2018-09-10T00:14:23.739Z,14.47
2018-09-10T00:16:50.976Z,14.47
2018-09-10T00:19:18.313Z,14.87
2018-09-10T00:21:45.638Z,14.75
2018-09-10T00:24:12.916Z,14.95
2018-09-10T00:26:40.162Z,14.23
2018-09-10T00:29:07.517Z,14.33
2018-09-10T00:31:34.861Z,14.65
2018-09-10T00:34:02.190Z,14.85
2018-09-10T00:36:29.576Z,14.00
2018-09-10T00:38:56.909Z,14.20
2018-09-10T00:41:24.373Z,15.40
2018-09-10T00:43:51.861Z,14.03
2018-09-10T00:46:19.177Z,13.70
2018-09-10T00:48:46.473Z,15.35
2018-09-10T00:51:13.741Z,14.53
2018-09-10T00:53:41.042Z,13.88
2018-09-10T00:56:08.426Z,14.58
2018-09-10T00:58:35.744Z,13.85
2018-09-10T01:01:03.015Z,13.60
2018-09-10T01:03:30.397Z,14.90
2018-09-10T01:05:57.846Z,14.98
2018-09-10T01:08:25.205Z,14.85
2018-09-10T01:10:53.150Z,14.60
2018-09-10T01:13:20.493Z,14.65
2018-09-10T01:15:47.857Z,14.07
2018-09-10T01:18:15.219Z,14.28
2018-09-10T01:20:42.486Z,14.10
2018-09-10T01:23:09.833Z,14.00
2018-09-10T01:25:37.091Z,15.30
2018-09-10T01:28:04.409Z,14.43
2018-09-10T01:30:31.802Z,15.00
2018-09-10T01:32:59.085Z,14.65
2018-09-10T01:35:26.455Z,14.68
2018-09-10T01:37:53.847Z,13.98
2018-09-10T01:40:21.107Z,14.55
2018-09-10T01:42:48.909Z,15.13
2018-09-10T01:45:16.158Z,15.03
2018-09-10T01:47:43.514Z,15.25
2018-09-10T01:50:10.825Z,15.50
2018-09-10T01:52:38.180Z,15.25
2018-09-10T01:55:05.489Z,13.80
2018-09-10T01:57:32.766Z,13.68
2018-09-10T02:00:00.042Z,14.33
2018-09-10T02:02:27.362Z,14.90
2018-09-10T02:04:54.793Z,13.50
2018-09-10T02:07:22.033Z,13.38
2018-09-10T02:09:49.285Z,14.60
2018-09-10T02:12:22.131Z,14.58
2018-09-10T02:14:49.380Z,14.38
2018-09-10T02:17:16.786Z,14.28
2018-09-10T02:19:44.039Z,14.30
2018-09-10T02:22:11.355Z,14.90
2018-09-10T02:24:38.714Z,14.03
2018-09-10T02:27:06.090Z,14.33
2018-09-10T02:29:33.402Z,13.58
2018-09-10T02:32:00.680Z,14.07
2018-09-10T02:34:28.145Z,14.70
2018-09-10T02:36:55.455Z,14.23
2018-09-10T02:39:22.743Z,14.03
2018-09-10T02:41:50.001Z,13.90
2018-09-10T02:44:17.329Z,14.10
2018-09-10T02:46:44.761Z,14.18
2018-09-10T02:49:12.165Z,14.45
2018-09-10T02:51:39.515Z,14.43
2018-09-10T02:54:06.894Z,13.53
2018-09-10T02:56:34.221Z,14.20
2018-09-10T02:59:01.608Z,14.53
2018-09-10T03:01:28.981Z,14.35
2018-09-10T03:03:56.321Z,14.58
2018-09-10T03:06:23.624Z,14.30
2018-09-10T03:08:50.973Z,14.25
2018-09-10T03:11:18.369Z,15.72
2018-09-10T03:13:45.610Z,13.62
2018-09-10T03:16:12.952Z,14.23
2018-09-10T03:18:40.304Z,14.30
2018-09-10T03:21:07.633Z,14.53
2018-09-10T03:23:35.058Z,13.90
2018-09-10T03:26:02.256Z,14.80
2018-09-10T03:28:29.617Z,14.45
2018-09-10T03:30:57.373Z,13.55
2018-09-10T03:33:24.789Z,13.58
2018-09-10T03:35:52.100Z,14.35
2018-09-10T03:38:19.470Z,13.60
2018-09-10T03:40:46.793Z,14.38
2018-09-10T03:43:14.090Z,14.25
2018-09-10T03:45:41.411Z,14.13
2018-09-10T03:48:08.908Z,13.72
2018-09-10T03:50:36.254Z,14.35
2018-09-10T03:53:03.717Z,14.47
2018-09-10T03:55:30.974Z,14.78
2018-09-10T03:57:58.307Z,13.85
2018-09-10T04:00:25.677Z,14.53
2018-09-10T04:02:53.029Z,13.38
2018-09-10T04:05:20.461Z,15.23
2018-09-10T04:07:47.725Z,14.98
2018-09-10T04:10:15.078Z,14.93
2018-09-10T04:12:42.405Z,14.15
2018-09-10T04:15:09.834Z,13.55
2018-09-10T04:17:37.059Z,13.43
2018-09-10T04:20:08.637Z,15.08
2018-09-10T04:22:35.937Z,14.35
2018-09-10T04:25:03.413Z,15.43
2018-09-10T04:27:30.773Z,13.55
2018-09-10T04:29:58.042Z,13.93
2018-09-10T04:32:25.361Z,13.80
2018-09-10T04:34:52.725Z,13.43
2018-09-10T04:37:19.973Z,15.20
2018-09-10T04:39:47.265Z,14.47
2018-09-10T04:42:14.646Z,14.30
2018-09-10T04:44:41.955Z,14.63
2018-09-10T04:47:09.175Z,13.50
2018-09-10T04:49:36.588Z,13.55
2018-09-10T04:52:03.829Z,14.10
2018-09-10T04:54:31.848Z,13.38
2018-09-10T04:56:59.194Z,14.55
2018-09-10T04:59:26.890Z,13.83
2018-09-10T05:01:54.155Z,13.35
2018-09-10T05:04:21.527Z,13.65
2018-09-10T05:06:48.778Z,13.88
2018-09-10T05:09:16.074Z,15.25
2018-09-10T05:11:43.463Z,13.62
2018-09-10T05:14:10.829Z,13.75
2018-09-10T05:16:38.161Z,13.65
2018-09-10T05:19:05.508Z,13.80
2018-09-10T05:21:32.875Z,14.50
2018-09-10T05:24:00.229Z,14.50
2018-09-10T05:26:27.582Z,14.55
2018-09-10T05:28:54.967Z,13.90
2018-09-10T05:31:22.213Z,14.10
2018-09-10T05:33:49.541Z,14.30
2018-09-10T05:36:16.893Z,14.05
2018-09-10T05:38:45.131Z,13.90
2018-09-10T05:41:12.436Z,14.28
2018-09-10T05:43:39.689Z,23.57
2018-09-10T05:46:07.033Z,14.87
2018-09-10T05:48:34.269Z,13.45
2018-09-10T05:51:01.625Z,14.18
2018-09-10T05:53:29.050Z,14.03
2018-09-10T05:55:56.743Z,13.83
2018-09-10T05:58:24.118Z,14.28
2018-09-10T06:00:51.469Z,14.70
2018-09-10T06:03:18.797Z,13.90
2018-09-10T06:05:46.081Z,13.60
2018-09-10T06:08:13.424Z,14.10
2018-09-10T06:10:40.856Z,13.80
2018-09-10T06:13:08.137Z,14.33
2018-09-10T06:15:35.451Z,14.00
2018-09-10T06:18:02.676Z,14.28
2018-09-10T06:20:29.974Z,13.58
2018-09-10T06:22:57.353Z,16.40
2018-09-10T06:25:24.693Z,17.60
2018-09-10T06:27:51.945Z,16.12
2018-09-10T06:30:19.418Z,15.13
2018-09-10T06:32:46.686Z,14.20
2018-09-10T06:35:13.949Z,14.98
2018-09-10T06:37:41.284Z,14.90
2018-09-10T06:40:08.589Z,15.08
2018-09-10T06:42:35.898Z,14.05
2018-09-10T06:45:03.201Z,15.03
2018-09-10T06:47:30.493Z,13.93
2018-09-10T06:49:57.763Z,15.20
2018-09-10T06:52:25.085Z,15.15
2018-09-10T06:54:52.471Z,14.43
2018-09-10T06:57:19.828Z,15.55
2018-09-10T06:59:47.253Z,14.68
2018-09-10T07:02:14.568Z,14.60
2018-09-10T07:04:41.805Z,15.23
2018-09-10T07:07:09.121Z,14.35
2018-09-10T07:09:36.449Z,14.85
2018-09-10T07:12:03.841Z,14.65
2018-09-10T07:14:31.140Z,15.23
2018-09-10T07:16:58.453Z,14.60
2018-09-10T07:19:25.725Z,15.08
2018-09-10T07:21:53.053Z,14.40
2018-09-10T07:24:20.410Z,15.18
2018-09-10T07:26:47.777Z,16.70
2018-09-10T07:29:15.113Z,15.45
2018-09-10T07:31:42.502Z,16.02
2018-09-10T07:34:09.764Z,15.80
2018-09-10T07:36:37.148Z,16.75
2018-09-10T07:39:06.410Z,15.83
2018-09-10T07:41:33.718Z,15.88
2018-09-10T07:44:01.137Z,16.67
2018-09-10T07:46:28.359Z,17.23
2018-09-10T07:48:56.215Z,16.07
2018-09-10T07:51:23.559Z,17.05
2018-09-10T07:53:51.188Z,17.52
2018-09-10T07:56:18.561Z,17.20
2018-09-10T07:58:45.850Z,17.02
2018-09-10T08:01:13.196Z,17.67
2018-09-10T08:03:40.567Z,18.62
2018-09-10T08:06:07.826Z,18.37
2018-09-10T08:08:35.149Z,19.05
2018-09-10T08:11:02.484Z,19.67
2018-09-10T08:13:29.805Z,20.37
2018-09-10T08:15:57.224Z,18.60
2018-09-10T08:18:24.565Z,18.07
2018-09-10T08:20:52.056Z,18.17
2018-09-10T08:23:19.347Z,19.02
2018-09-10T08:25:46.614Z,20.43
2018-09-10T08:28:13.925Z,19.02
2018-09-10T08:30:41.228Z,18.90
2018-09-10T08:33:08.526Z,19.20
2018-09-10T08:35:35.817Z,18.92
2018-09-10T08:38:03.090Z,18.92
2018-09-10T08:40:30.465Z,19.30
2018-09-10T08:42:57.817Z,19.60
2018-09-10T08:45:25.046Z,19.62
2018-09-10T08:47:52.437Z,20.27
2018-09-10T08:50:19.743Z,19.65
2018-09-10T08:52:47.048Z,21.45
2018-09-10T08:55:14.420Z,20.10
2018-09-10T08:57:41.629Z,20.82
2018-09-10T09:00:08.920Z,22.07
2018-09-10T09:02:36.293Z,21.50
2018-09-10T09:05:03.590Z,21.17
2018-09-10T09:07:30.966Z,18.32
2018-09-10T09:09:58.249Z,20.75
2018-09-10T09:12:25.723Z,19.17
2018-09-10T09:14:52.987Z,20.35
2018-09-10T09:17:20.305Z,19.98
2018-09-10T09:19:47.627Z,25.12
2018-09-10T09:22:14.969Z,20.68
2018-09-10T09:24:42.324Z,19.60
2018-09-10T09:27:10.173Z,21.97
2018-09-10T09:29:37.579Z,20.62
2018-09-10T09:32:04.860Z,20.30
2018-09-10T09:34:37.727Z,21.20
2018-09-10T09:37:10.348Z,21.23
2018-09-10T09:39:42.972Z,19.87
2018-09-10T09:42:15.726Z,19.82
2018-09-10T09:44:48.417Z,19.92
2018-09-10T09:47:15.688Z,21.40
2018-09-10T09:49:43.157Z,21.68
2018-09-10T09:52:10.449Z,22.02
2018-09-10T09:54:38.734Z,20.25
2018-09-10T09:57:06.718Z,21.12
2018-09-10T09:59:35.137Z,21.80
2018-09-10T10:02:07.881Z,20.15
2018-09-10T10:04:35.325Z,21.48
2018-09-10T10:07:02.588Z,21.48
2018-09-10T10:09:29.962Z,18.48
2018-09-10T10:11:57.248Z,21.15
2018-09-10T10:14:24.566Z,19.10
2018-09-10T10:16:51.830Z,19.45
2018-09-10T10:19:19.161Z,18.60
2018-09-10T10:21:46.556Z,20.88
2018-09-10T10:24:14.364Z,18.70
2018-09-10T10:26:41.657Z,19.98
2018-09-10T10:29:08.927Z,17.90
2018-09-10T10:31:36.225Z,17.42
2018-09-10T10:34:03.651Z,18.52
2018-09-10T10:36:31.061Z,17.12
2018-09-10T10:38:58.415Z,17.12
2018-09-10T10:41:25.789Z,18.45
2018-09-10T10:43:53.116Z,17.27
2018-09-10T10:46:20.395Z,16.77
2018-09-10T10:48:47.686Z,17.17
2018-09-10T10:51:14.986Z,17.80
2018-09-10T10:53:42.373Z,16.73
2018-09-10T10:56:09.641Z,17.00
2018-09-10T10:58:36.916Z,17.60
2018-09-10T11:01:04.182Z,17.50
2018-09-10T11:03:31.463Z,17.62
2018-09-10T11:05:58.832Z,17.12
2018-09-10T11:08:26.178Z,16.75
2018-09-10T11:10:57.916Z,18.55
2018-09-10T11:13:25.472Z,17.40
2018-09-10T11:15:52.767Z,17.27
2018-09-10T11:18:20.083Z,17.90
2018-09-10T11:20:47.357Z,16.35
2018-09-10T11:23:14.737Z,17.27
2018-09-10T11:25:42.058Z,17.37
2018-09-10T11:28:09.331Z,17.20
2018-09-10T11:30:36.642Z,16.02
2018-09-10T11:33:04.034Z,17.20
2018-09-10T11:35:31.375Z,17.62
2018-09-10T11:37:58.687Z,16.55
2018-09-10T11:40:26.084Z,17.67
2018-09-10T11:42:53.538Z,17.07
2018-09-10T11:45:20.960Z,16.62
2018-09-10T11:47:48.298Z,16.75
2018-09-10T11:50:15.615Z,15.72
2018-09-10T11:52:42.979Z,17.65
2018-09-10T11:55:10.315Z,15.83
2018-09-10T11:57:37.606Z,17.30
2018-09-10T12:00:05.018Z,16.80
2018-09-10T12:02:32.255Z,16.65
2018-09-10T12:04:59.573Z,17.20
2018-09-10T12:07:26.882Z,17.25
2018-09-10T12:09:54.201Z,18.30
2018-09-10T12:12:21.634Z,16.57
2018-09-10T12:14:49.014Z,17.25
2018-09-10T12:17:16.338Z,16.50
2018-09-10T12:19:43.743Z,16.60
2018-09-10T12:22:11.073Z,16.48
2018-09-10T12:24:38.476Z,15.85
2018-09-10T12:27:05.826Z,15.00
2018-09-10T12:29:33.209Z,15.43
2018-09-10T12:32:00.509Z,15.50
2018-09-10T12:34:27.947Z,16.65
2018-09-10T12:36:55.344Z,15.65
2018-09-10T12:39:22.722Z,15.58
2018-09-10T12:41:50.046Z,16.57
2018-09-10T12:44:17.418Z,16.50
2018-09-10T12:46:44.872Z,14.47
2018-09-10T12:49:12.222Z,15.32
2018-09-10T12:51:39.508Z,15.68
2018-09-10T12:54:06.783Z,14.20
2018-09-10T12:56:34.317Z,15.40
2018-09-10T12:59:01.583Z,15.25
2018-09-10T13:01:28.855Z,14.20
2018-09-10T13:03:56.273Z,14.25
2018-09-10T13:06:23.571Z,15.20
2018-09-10T13:08:50.856Z,14.90
2018-09-10T13:11:18.212Z,14.50
2018-09-10T13:13:45.497Z,15.75
2018-09-10T13:16:12.874Z,16.10
2018-09-10T13:18:40.202Z,15.35
2018-09-10T13:21:07.543Z,16.50
2018-09-10T13:23:34.894Z,15.38
2018-09-10T13:26:02.190Z,15.05
2018-09-10T13:28:29.560Z,15.78
2018-09-10T13:30:57.658Z,16.37
2018-09-10T13:33:25.066Z,15.03
2018-09-10T13:35:52.865Z,14.47
2018-09-10T13:38:20.835Z,14.38
2018-09-10T13:40:48.298Z,14.90
2018-09-10T13:43:16.448Z,16.00
2018-09-10T13:45:43.871Z,14.05
2018-09-10T13:48:11.646Z,15.40
2018-09-10T13:50:38.955Z,15.23
2018-09-10T13:53:06.553Z,15.23
2018-09-10T13:55:33.943Z,14.13
2018-09-10T13:58:01.360Z,15.32
2018-09-10T14:00:28.719Z,15.30
2018-09-10T14:02:56.010Z,15.35
2018-09-10T14:05:23.447Z,14.85
2018-09-10T14:07:50.853Z,14.53
2018-09-10T14:10:18.312Z,15.68
2018-09-10T14:12:45.698Z,14.93
2018-09-10T14:15:13.127Z,14.38
2018-09-10T14:17:40.464Z,15.18
2018-09-10T14:20:07.772Z,15.30
2018-09-10T14:22:35.153Z,14.55
2018-09-10T14:25:02.446Z,16.23
2018-09-10T14:27:29.762Z,15.43
2018-09-10T14:29:57.167Z,16.07
2018-09-10T14:32:24.487Z,15.55
2018-09-10T14:34:51.841Z,14.13
2018-09-10T14:37:19.257Z,15.70
2018-09-10T14:39:46.642Z,15.00
2018-09-10T14:42:14.041Z,15.55
2018-09-10T14:44:41.337Z,14.80
2018-09-10T14:47:08.621Z,15.45
2018-09-10T14:49:36.032Z,15.23
2018-09-10T14:52:03.402Z,15.98
2018-09-10T14:54:30.713Z,14.87
2018-09-10T14:56:58.078Z,16.20
2018-09-10T14:59:25.393Z,14.90
2018-09-10T15:01:52.662Z,14.93
2018-09-10T15:04:20.207Z,16.23
2018-09-10T15:06:47.471Z,15.05
2018-09-10T15:09:14.834Z,16.10
2018-09-10T15:11:42.193Z,15.20
2018-09-10T15:14:09.553Z,16.45
2018-09-10T15:16:36.956Z,15.58
2018-09-10T15:19:04.620Z,14.87
2018-09-10T15:21:31.942Z,15.35
2018-09-10T15:23:59.420Z,15.55
2018-09-10T15:26:26.764Z,15.85
2018-09-10T15:28:54.266Z,14.75
2018-09-10T15:31:21.767Z,14.63
2018-09-10T15:33:49.213Z,15.50
2018-09-10T15:36:17.296Z,16.65
2018-09-10T15:38:44.643Z,16.50
2018-09-10T15:41:11.953Z,15.25
2018-09-10T15:43:39.391Z,16.48
2018-09-10T15:46:06.726Z,17.12
2018-09-10T15:48:34.906Z,16.35
2018-09-10T15:51:02.277Z,15.88
2018-09-10T15:53:29.677Z,16.15
2018-09-10T15:55:57.079Z,16.67
2018-09-10T15:58:24.493Z,16.82
2018-09-10T16:00:51.953Z,15.93
2018-09-10T16:03:20.061Z,16.62
2018-09-10T16:05:47.940Z,15.70
2018-09-10T16:08:16.026Z,15.50
2018-09-10T16:10:43.500Z,14.83
2018-09-10T16:13:10.808Z,15.40
2018-09-10T16:15:38.142Z,15.88
2018-09-10T16:18:05.581Z,15.38
2018-09-10T16:20:32.873Z,15.00
2018-09-10T16:23:00.321Z,16.45
2018-09-10T16:25:27.750Z,17.70
2018-09-10T16:27:55.041Z,15.95
2018-09-10T16:30:22.361Z,15.23
2018-09-10T16:32:49.851Z,15.60
2018-09-10T16:35:17.179Z,15.83
2018-09-10T16:37:44.543Z,16.20
2018-09-10T16:40:12.005Z,15.88
2018-09-10T16:42:39.315Z,15.80
2018-09-10T16:45:06.740Z,14.83
2018-09-10T16:47:34.145Z,15.10
2018-09-10T16:50:01.467Z,15.53
2018-09-10T16:52:28.885Z,14.90
2018-09-10T16:54:56.279Z,15.53
2018-09-10T16:57:23.536Z,15.28
2018-09-10T16:59:50.948Z,14.35
2018-09-10T17:02:18.329Z,15.93
2018-09-10T17:04:45.639Z,14.70
2018-09-10T17:07:12.994Z,15.45
2018-09-10T17:09:40.370Z,15.98
2018-09-10T17:12:07.784Z,15.68
2018-09-10T17:14:37.496Z,14.83
2018-09-10T17:17:05.216Z,14.83
2018-09-10T17:19:32.785Z,15.35
2018-09-10T17:22:00.997Z,15.85
2018-09-10T17:24:29.233Z,14.68
2018-09-10T17:26:56.633Z,14.03
2018-09-10T17:29:24.160Z,15.80
2018-09-10T17:31:51.464Z,14.85
2018-09-10T17:34:18.843Z,14.65
2018-09-10T17:36:46.255Z,16.65
2018-09-10T17:39:13.641Z,15.75
2018-09-10T17:41:40.986Z,14.93
2018-09-10T17:44:08.340Z,14.63
2018-09-10T17:46:35.698Z,14.45
2018-09-10T17:49:03.135Z,15.63
2018-09-10T17:51:30.551Z,15.48
2018-09-10T17:53:57.943Z,15.50
2018-09-10T17:56:25.378Z,14.78
2018-09-10T17:58:52.844Z,15.25
2018-09-10T18:01:20.254Z,15.25
2018-09-10T18:03:47.728Z,15.10
2018-09-10T18:06:15.421Z,15.43
2018-09-10T18:08:42.922Z,15.13
2018-09-10T18:11:10.373Z,16.05
2018-09-10T18:13:37.931Z,16.20
2018-09-10T18:16:05.602Z,16.30
2018-09-10T18:18:32.932Z,13.28
2018-09-10T18:21:00.366Z,17.62
2018-09-10T18:23:27.756Z,16.95
2018-09-10T18:25:55.231Z,14.87
2018-09-10T18:28:22.813Z,16.42
2018-09-10T18:30:50.216Z,16.20
2018-09-10T18:33:17.950Z,15.18
2018-09-10T18:35:45.423Z,16.73
2018-09-10T18:38:12.769Z,15.60
2018-09-10T18:40:40.769Z,15.25
2018-09-10T18:43:08.159Z,15.18
2018-09-10T18:45:35.715Z,15.35
2018-09-10T18:48:03.202Z,16.07
2018-09-10T18:50:30.742Z,17.23
2018-09-10T18:52:58.105Z,15.00
2018-09-10T18:55:25.719Z,15.15
2018-09-10T18:57:53.385Z,14.87
2018-09-10T19:00:20.707Z,15.05
2018-09-10T19:02:48.370Z,15.58
2018-09-10T19:05:15.866Z,15.38
2018-09-10T19:07:43.324Z,15.28
2018-09-10T19:10:10.804Z,17.20
2018-09-10T19:12:38.527Z,16.40
2018-09-10T19:15:06.167Z,15.88
2018-09-10T19:17:33.623Z,15.20
2018-09-10T19:20:01.096Z,15.75
2018-09-10T19:22:28.607Z,14.55
2018-09-10T19:24:56.077Z,14.83
2018-09-10T19:27:23.508Z,14.83
2018-09-10T19:29:50.973Z,14.90
2018-09-10T19:32:18.320Z,15.00
2018-09-10T19:34:45.637Z,16.12
2018-09-10T19:37:13.754Z,14.05
2018-09-10T19:39:41.227Z,15.32
2018-09-10T19:42:08.574Z,15.30
2018-09-10T19:44:36.005Z,14.75
2018-09-10T19:47:03.565Z,16.50
2018-09-10T19:49:32.133Z,14.13
2018-09-10T19:51:59.565Z,14.35
2018-09-10T19:54:27.893Z,14.15
2018-09-10T19:56:55.267Z,14.40
2018-09-10T19:59:22.792Z,14.95
2018-09-10T20:01:50.400Z,14.63
2018-09-10T20:04:18.496Z,15.98
2018-09-10T20:06:45.875Z,15.32
2018-09-10T20:09:14.569Z,15.10
2018-09-10T20:11:41.898Z,14.63
2018-09-10T20:14:09.466Z,14.35
2018-09-10T20:16:36.823Z,17.48
2018-09-10T20:19:04.351Z,14.58
2018-09-10T20:21:31.726Z,14.65
2018-09-10T20:23:59.012Z,16.23
2018-09-10T20:26:26.335Z,15.53
2018-09-10T20:28:53.753Z,15.80
2018-09-10T20:31:21.155Z,15.80
2018-09-10T20:33:53.998Z,14.53
2018-09-10T20:36:21.303Z,14.83
2018-09-10T20:38:48.634Z,14.98
2018-09-10T20:41:16.338Z,15.93
2018-09-10T20:43:43.665Z,14.25
2018-09-10T20:46:10.980Z,15.38
2018-09-10T20:48:38.436Z,14.23
2018-09-10T20:51:05.786Z,14.10
2018-09-10T20:53:33.107Z,14.55
2018-09-10T20:56:00.570Z,14.53
2018-09-10T20:58:27.884Z,14.68
2018-09-10T21:00:55.211Z,15.30
2018-09-10T21:03:22.606Z,14.83
2018-09-10T21:05:49.875Z,14.45
2018-09-10T21:08:17.895Z,14.55
2018-09-10T21:10:45.305Z,14.05
2018-09-10T21:13:12.599Z,14.40
2018-09-10T21:15:39.875Z,15.00
2018-09-10T21:18:07.244Z,14.47
2018-09-10T21:20:34.501Z,14.58
2018-09-10T21:23:01.846Z,15.13
2018-09-10T21:25:29.329Z,15.30
2018-09-10T21:27:56.663Z,14.78
2018-09-10T21:30:23.998Z,14.95
2018-09-10T21:32:51.257Z,14.45
2018-09-10T21:35:18.738Z,15.00
2018-09-10T21:37:46.078Z,15.00
2018-09-10T21:40:13.400Z,15.23
2018-09-10T21:42:40.636Z,14.20
2018-09-10T21:45:08.121Z,14.80
2018-09-10T21:47:35.501Z,14.85
2018-09-10T21:50:02.804Z,15.08
2018-09-10T21:52:30.094Z,15.60
2018-09-10T21:54:57.496Z,16.25
2018-09-10T21:57:24.806Z,14.65
2018-09-10T21:59:52.110Z,15.40
2018-09-10T22:02:19.453Z,15.05
2018-09-10T22:04:46.828Z,16.25
2018-09-10T22:07:14.286Z,15.45
2018-09-10T22:09:41.636Z,15.72
2018-09-10T22:12:08.960Z,15.20
2018-09-10T22:14:36.327Z,15.38
2018-09-10T22:17:03.657Z,15.20
2018-09-10T22:19:31.041Z,15.30
2018-09-10T22:21:58.372Z,16.17
2018-09-10T22:24:25.854Z,15.23
2018-09-10T22:26:53.838Z,15.43
2018-09-10T22:29:21.137Z,15.03
2018-09-10T22:31:48.585Z,15.60
2018-09-10T22:34:15.973Z,15.30
2018-09-10T22:36:43.261Z,15.68
2018-09-10T22:39:12.955Z,17.52
2018-09-10T22:41:40.238Z,15.20
2018-09-10T22:44:07.785Z,14.75
2018-09-10T22:46:35.804Z,15.20
2018-09-10T22:49:03.364Z,15.70
2018-09-10T22:51:30.825Z,15.35
2018-09-10T22:53:58.381Z,15.98
2018-09-10T22:56:25.802Z,15.63
2018-09-10T22:58:53.152Z,15.95
2018-09-10T23:01:20.587Z,15.68
2018-09-10T23:03:48.011Z,15.40
2018-09-10T23:06:15.370Z,15.70
2018-09-10T23:08:44.522Z,15.50
2018-09-10T23:11:12.674Z,15.40
2018-09-10T23:13:41.373Z,15.72
2018-09-10T23:16:09.842Z,16.32
2018-09-10T23:18:38.209Z,15.95
2018-09-10T23:21:06.959Z,15.70
2018-09-10T23:23:35.266Z,15.45
2018-09-10T23:26:03.789Z,15.40
2018-09-10T23:28:32.236Z,16.20
2018-09-10T23:30:59.580Z,15.00
2018-09-10T23:33:26.887Z,16.05
2018-09-10T23:35:54.161Z,15.65
2018-09-10T23:38:21.549Z,14.98
2018-09-10T23:40:48.882Z,16.25
2018-09-10T23:43:16.215Z,21.93
2018-09-10T23:45:43.557Z,17.48
2018-09-10T23:48:10.858Z,17.77
2018-09-10T23:50:38.276Z,16.00
2018-09-10T23:53:05.732Z,16.27
2018-09-10T23:55:33.098Z,15.90
2018-09-10T23:58:00.960Z,16.10
